createdAt,value
2022-09-01T00:00:51.755Z,100330.88
2022-09-01T00:04:03.252Z,100329.97
2022-09-01T00:07:09.135Z,100328.28
2022-09-01T00:10:11.251Z,100338.09
2022-09-01T00:13:13.570Z,100338.94
2022-09-01T00:16:17.910Z,100343.34
2022-09-01T00:19:20.524Z,100339.66
2022-09-01T00:22:22.269Z,100337.97
2022-09-01T00:25:24.881Z,100337.12
2022-09-01T00:28:28.751Z,100347.56
2022-09-01T00:31:32.427Z,100343.38
2022-09-01T00:34:34.390Z,100340.69
2022-09-01T00:37:36.299Z,100343.41
2022-09-01T00:40:38.529Z,100350.38
2022-09-01T00:44:05.492Z,100354.84
2022-09-01T00:47:07.546Z,100353.94
2022-09-01T00:50:12.840Z,100357.31
2022-09-01T00:53:14.646Z,100366.34
2022-09-01T00:56:17.123Z,100382.31
2022-09-01T00:59:22.380Z,100392.94
2022-09-01T01:02:25.963Z,100418.53
2022-09-01T01:05:36.706Z,100430.91
2022-09-01T01:08:42.062Z,100447.66
2022-09-01T01:11:47.634Z,100466.12
2022-09-01T01:14:50.881Z,100467.06
2022-09-01T01:17:53.123Z,100464.41
2022-09-01T01:21:22.691Z,100461.81
2022-09-01T01:24:33.554Z,100460.09
2022-09-01T01:27:42.521Z,100467.16
2022-09-01T01:30:52.592Z,100465.41
2022-09-01T01:33:56.889Z,100459.28
2022-09-01T01:36:59.959Z,100468.13
2022-09-01T01:40:02.877Z,100470.72
2022-09-01T01:43:05.842Z,100472.47
2022-09-01T01:46:10.938Z,100470.69
2022-09-01T01:49:18.989Z,100477.69
2022-09-01T01:52:21.262Z,100483.78
2022-09-01T01:55:29.156Z,100482.06
2022-09-01T01:58:31.462Z,100470.56
2022-09-01T02:01:33.519Z,100466.09
2022-09-01T02:04:36.105Z,100469.59
2022-09-01T02:07:42.495Z,100460.75
2022-09-01T02:10:47.080Z,100465.09
2022-09-01T02:13:49.470Z,100460.50
2022-09-01T02:16:52.100Z,100456.97
2022-09-01T02:19:58.049Z,100467.28
2022-09-01T02:23:09.419Z,100460.28
2022-09-01T02:26:16.965Z,100458.97
2022-09-01T02:29:22.595Z,100447.94
2022-09-01T02:32:24.779Z,100445.56
2022-09-01T02:35:34.330Z,100452.22
2022-09-01T02:38:36.339Z,100452.62
2022-09-01T02:41:41.392Z,100455.97
2022-09-01T02:44:43.784Z,100450.53
2022-09-01T02:47:47.650Z,100444.09
2022-09-01T02:50:49.492Z,100445.91
2022-09-01T02:53:53.191Z,100444.09
2022-09-01T02:56:55.232Z,100434.25
2022-09-01T02:59:58.938Z,100428.88
2022-09-01T03:03:02.268Z,100425.47
2022-09-01T03:06:05.196Z,100423.66
2022-09-01T03:09:11.291Z,100425.47
2022-09-01T03:12:13.185Z,100428.13
2022-09-01T03:15:14.993Z,100410.75
2022-09-01T03:18:19.138Z,100414.00
2022-09-01T03:21:21.164Z,100405.34
2022-09-01T03:24:23.194Z,100405.31
2022-09-01T03:27:25.020Z,100405.59
2022-09-01T03:30:27.003Z,100404.66
2022-09-01T03:33:28.798Z,100406.56
2022-09-01T03:36:33.541Z,100410.03
2022-09-01T03:39:35.977Z,100398.59
2022-09-01T03:42:37.988Z,100390.69
2022-09-01T03:45:41.345Z,100390.81
2022-09-01T03:48:43.388Z,100389.66
2022-09-01T03:51:45.623Z,100384.50
2022-09-01T03:54:51.295Z,100389.75
2022-09-01T03:57:54.768Z,100395.84
2022-09-01T04:01:00.793Z,100405.41
2022-09-01T04:04:03.259Z,100398.22
2022-09-01T04:07:05.344Z,100395.94
2022-09-01T04:10:11.595Z,100394.19
2022-09-01T04:13:14.347Z,100394.25
2022-09-01T04:16:47.691Z,100392.31
2022-09-01T04:19:49.603Z,100400.41
2022-09-01T04:22:52.747Z,100404.81
2022-09-01T04:25:57.883Z,100400.31
2022-09-01T04:29:01.093Z,100399.53
2022-09-01T04:32:06.844Z,100392.63
2022-09-01T04:35:11.616Z,100390.97
2022-09-01T04:38:16.410Z,100389.09
2022-09-01T04:41:18.770Z,100396.06
2022-09-01T04:44:20.567Z,100385.66
2022-09-01T04:47:35.162Z,100391.44
2022-09-01T04:50:41.321Z,100391.25
2022-09-01T04:53:49.028Z,100396.44
2022-09-01T04:56:53.075Z,100398.97
2022-09-01T04:59:57.102Z,100388.50
2022-09-01T05:03:05.045Z,100393.47
2022-09-01T05:06:13.443Z,100383.19
2022-09-01T05:09:18.074Z,100387.56
2022-09-01T05:12:23.295Z,100388.28
2022-09-01T05:15:24.940Z,100390.81
2022-09-01T05:18:28.484Z,100392.59
2022-09-01T05:21:30.715Z,100387.53
2022-09-01T05:24:39.826Z,100380.59
2022-09-01T05:27:49.843Z,100378.09
2022-09-01T05:30:54.336Z,100367.56
2022-09-01T05:33:58.276Z,100364.19
2022-09-01T05:37:00.150Z,100362.53
2022-09-01T05:40:02.754Z,100365.09
2022-09-01T05:43:04.664Z,100360.72
2022-09-01T05:46:09.143Z,100357.28
2022-09-01T05:49:13.991Z,100357.41
2022-09-01T05:52:15.852Z,100357.34
2022-09-01T05:55:17.743Z,100349.53
2022-09-01T05:58:20.366Z,100350.28
2022-09-01T06:01:31.144Z,100344.25
2022-09-01T06:04:32.952Z,100338.78
2022-09-01T06:07:38.129Z,100333.50
2022-09-01T06:10:41.973Z,100335.34
2022-09-01T06:13:47.792Z,100333.56
2022-09-01T06:16:49.589Z,100341.56
2022-09-01T06:19:52.766Z,100348.72
2022-09-01T06:22:54.557Z,100351.53
2022-09-01T06:25:56.334Z,100356.00
2022-09-01T06:29:01.385Z,100368.16
2022-09-01T06:32:03.618Z,100361.19
2022-09-01T06:35:07.391Z,100361.25
2022-09-01T06:38:11.941Z,100367.47
2022-09-01T06:41:13.851Z,100367.44
2022-09-01T06:44:16.117Z,100365.87
2022-09-01T06:47:17.934Z,100373.78
2022-09-01T06:53:45.587Z,100375.44
2022-09-01T06:56:51.840Z,100378.97
2022-09-01T06:59:54.589Z,100386.06
2022-09-01T07:02:58.345Z,100388.75
2022-09-01T07:06:02.635Z,100392.25
2022-09-01T07:09:21.550Z,100390.50
2022-09-01T07:12:26.732Z,100397.53
2022-09-01T07:18:59.084Z,100401.06
2022-09-01T07:22:08.239Z,100386.09
2022-09-01T07:25:12.871Z,100396.78
2022-09-01T07:28:37.949Z,100398.44
2022-09-01T07:31:50.135Z,100411.62
2022-09-01T07:34:52.430Z,100412.50
2022-09-01T07:42:31.770Z,100414.25
2022-09-01T07:44:40.354Z,100409.00
2022-09-01T07:47:57.970Z,100420.53
2022-09-01T07:51:35.683Z,100419.63
2022-09-01T07:54:24.816Z,100421.28
2022-09-01T07:57:29.757Z,100415.28
2022-09-01T08:00:32.029Z,100419.69
2022-09-01T08:03:33.941Z,100427.56
2022-09-01T08:06:39.361Z,100416.16
2022-09-01T08:09:44.269Z,100418.78
2022-09-01T08:12:46.337Z,100422.31
2022-09-01T08:19:16.546Z,100427.59
2022-09-01T08:22:21.933Z,100425.84
2022-09-01T08:25:25.024Z,100428.47
2022-09-01T08:28:27.355Z,100427.59
2022-09-01T08:31:30.967Z,100427.59
2022-09-01T08:34:34.215Z,100426.75
2022-09-01T08:37:36.519Z,100423.22
2022-09-01T08:40:38.839Z,100430.22
2022-09-01T08:44:03.926Z,100424.03
2022-09-01T08:47:13.736Z,100432.84
2022-09-01T08:50:20.826Z,100436.38
2022-09-01T08:53:27.218Z,100434.59
2022-09-01T08:56:29.277Z,100448.53
2022-09-01T08:59:31.084Z,100449.16
2022-09-01T09:02:51.032Z,100441.13
2022-09-01T09:06:00.021Z,100438.31
2022-09-01T09:09:06.424Z,100441.81
2022-09-01T09:12:29.111Z,100427.69
2022-09-01T09:15:45.001Z,100427.75
2022-09-01T09:18:58.057Z,100426.00
2022-09-01T09:22:02.575Z,100416.06
2022-09-01T09:25:11.679Z,100423.50
2022-09-01T09:28:13.684Z,100412.03
2022-09-01T09:31:45.844Z,100409.59
2022-09-01T09:34:48.815Z,100409.72
2022-09-01T09:37:50.801Z,100409.94
2022-09-01T09:41:18.781Z,100408.25
2022-09-01T09:44:31.379Z,100411.19
2022-09-01T09:47:46.551Z,100401.69
2022-09-01T09:50:48.448Z,100403.97
2022-09-01T09:53:52.574Z,100400.44
2022-09-01T09:57:12.694Z,100388.00
2022-09-01T10:00:24.509Z,100402.78
2022-09-01T10:03:50.444Z,100405.94
2022-09-01T10:06:54.352Z,100394.72
2022-09-01T10:09:58.797Z,100391.91
2022-09-01T10:13:02.245Z,100391.44
2022-09-01T10:16:16.283Z,100392.25
2022-09-01T10:19:25.304Z,100396.91
2022-09-01T10:22:27.150Z,100387.09
2022-09-01T10:25:33.482Z,100397.84
2022-09-01T10:28:50.725Z,100396.34
2022-09-01T10:32:14.792Z,100392.25
2022-09-01T10:35:23.797Z,100388.06
2022-09-01T10:38:30.540Z,100393.63
2022-09-01T10:41:42.465Z,100396.41
2022-09-01T10:45:02.079Z,100394.66
2022-09-01T10:48:32.009Z,100390.44
2022-09-01T10:51:38.900Z,100385.34
2022-09-01T10:54:51.030Z,100392.19
2022-09-01T11:01:49.617Z,100384.22
2022-09-01T11:04:51.766Z,100390.94
2022-09-01T11:08:01.796Z,100380.28
2022-09-01T11:11:15.175Z,100381.69
2022-09-01T11:14:23.079Z,100384.47
2022-09-01T11:17:25.351Z,100389.50
2022-09-01T11:20:34.472Z,100396.81
2022-09-01T11:23:36.639Z,100381.88
2022-09-01T11:26:48.005Z,100386.59
2022-09-01T11:30:01.217Z,100378.00
2022-09-01T11:33:28.152Z,100382.44
2022-09-01T11:36:29.769Z,100387.34
2022-09-01T11:39:46.585Z,100381.47
2022-09-01T11:42:51.204Z,100377.62
2022-09-01T11:46:17.640Z,100384.62
2022-09-01T11:49:37.668Z,100378.91
2022-09-01T11:52:41.684Z,100375.28
2022-09-01T11:55:46.737Z,100368.38
2022-09-01T11:58:48.580Z,100372.56
2022-09-01T12:01:58.151Z,100370.56
2022-09-01T12:05:01.988Z,100379.16
2022-09-01T12:08:14.125Z,100371.84
2022-09-01T12:11:22.319Z,100372.81
2022-09-01T12:14:24.347Z,100374.38
2022-09-01T12:17:26.199Z,100368.25
2022-09-01T12:20:31.111Z,100374.22
2022-09-01T12:23:40.368Z,100375.91
2022-09-01T12:26:43.050Z,100373.28
2022-09-01T12:29:46.159Z,100371.38
2022-09-01T12:32:48.582Z,100363.50
2022-09-01T12:35:50.704Z,100362.69
2022-09-01T12:38:56.629Z,100366.00
2022-09-01T12:42:24.415Z,100364.38
2022-09-01T12:45:45.695Z,100351.91
2022-09-01T12:48:49.590Z,100365.59
2022-09-01T12:52:20.308Z,100362.31
2022-09-01T12:58:54.608Z,100369.19
2022-09-01T13:01:56.570Z,100366.25
2022-09-01T13:05:36.099Z,100362.31
2022-09-01T13:08:41.459Z,100359.91
2022-09-01T13:15:05.802Z,100363.72
2022-09-01T13:18:07.626Z,100365.22
2022-09-01T13:21:10.185Z,100357.28
2022-09-01T13:24:11.997Z,100365.09
2022-09-01T13:27:21.995Z,100354.56
2022-09-01T13:30:28.472Z,100356.94
2022-09-01T13:34:08.749Z,100358.03
2022-09-01T13:36:53.020Z,100358.59
2022-09-01T13:39:54.645Z,100362.19
2022-09-01T13:42:56.265Z,100367.50
2022-09-01T13:45:59.054Z,100360.94
2022-09-01T13:49:04.327Z,100378.66
2022-09-01T13:52:06.977Z,100377.00
2022-09-01T13:55:12.892Z,100366.94
2022-09-01T13:58:15.176Z,100378.56
2022-09-01T14:01:16.953Z,100380.53
2022-09-01T14:04:20.050Z,100378.84
2022-09-01T14:07:22.057Z,100371.69
2022-09-01T14:10:25.633Z,100376.88
2022-09-01T14:13:27.890Z,100371.47
2022-09-01T14:16:30.120Z,100373.13
2022-09-01T14:19:32.092Z,100371.06
2022-09-01T14:22:38.333Z,100370.38
2022-09-01T14:25:46.073Z,100373.31
2022-09-01T14:28:48.671Z,100373.94
2022-09-01T14:31:50.438Z,100373.31
2022-09-01T14:34:53.209Z,100368.69
2022-09-01T14:37:56.360Z,100380.59
2022-09-01T14:40:58.387Z,100370.22
2022-09-01T14:44:03.215Z,100368.19
2022-09-01T14:47:05.992Z,100376.31
2022-09-01T14:53:15.187Z,100372.91
2022-09-01T14:56:19.249Z,100377.47
2022-09-01T14:59:20.877Z,100383.31
2022-09-01T15:02:25.465Z,100374.44
2022-09-01T15:05:27.344Z,100386.84
2022-09-01T15:08:29.082Z,100382.19
2022-09-01T15:11:30.781Z,100380.53
2022-09-01T15:14:33.538Z,100381.28
2022-09-01T15:17:35.658Z,100380.53
2022-09-01T15:20:45.365Z,100374.00
2022-09-01T15:23:48.764Z,100374.38
2022-09-01T15:26:50.572Z,100376.78
2022-09-01T15:29:52.352Z,100377.00
2022-09-01T15:32:55.386Z,100381.09
2022-09-01T15:35:57.078Z,100372.41
2022-09-01T15:38:59.111Z,100370.53
2022-09-01T15:42:03.165Z,100367.91
2022-09-01T15:45:09.993Z,100370.28
2022-09-01T15:48:11.614Z,100372.69
2022-09-01T15:51:22.325Z,100377.94
2022-09-01T15:54:30.200Z,100368.78
2022-09-01T15:57:32.248Z,100377.69
2022-09-01T16:00:34.899Z,100374.84
2022-09-01T16:03:36.864Z,100372.34
2022-09-01T16:06:39.253Z,100373.91
2022-09-01T16:09:40.911Z,100383.69
2022-09-01T16:12:44.926Z,100376.22
2022-09-01T16:16:14.572Z,100376.50
2022-09-01T16:19:22.702Z,100379.59
2022-09-01T16:22:31.689Z,100368.75
2022-09-01T16:25:34.782Z,100369.88
2022-09-01T16:28:37.987Z,100374.44
2022-09-01T16:31:42.863Z,100375.34
2022-09-01T16:34:47.162Z,100384.53
2022-09-01T16:37:52.115Z,100382.06
2022-09-01T16:41:04.921Z,100377.50
2022-09-01T16:44:44.371Z,100383.41
2022-09-01T16:47:52.823Z,100379.47
2022-09-01T16:51:12.782Z,100384.69
2022-09-01T16:54:30.063Z,100383.84
2022-09-01T16:57:46.299Z,100391.22
2022-09-01T17:01:00.582Z,100388.56
2022-09-01T17:04:30.500Z,100388.03
2022-09-01T17:07:50.409Z,100382.87
2022-09-01T17:10:54.196Z,100383.69
2022-09-01T17:13:56.613Z,100390.81
2022-09-01T17:17:08.458Z,100390.88
2022-09-01T17:20:13.088Z,100394.47
2022-09-01T17:23:28.651Z,100387.34
2022-09-01T17:26:31.794Z,100393.78
2022-09-01T17:29:41.117Z,100397.31
2022-09-01T17:32:55.123Z,100395.75
2022-09-01T17:36:20.291Z,100401.97
2022-09-01T17:39:37.363Z,100402.19
2022-09-01T17:43:05.019Z,100395.25
2022-09-01T17:46:31.287Z,100395.25
2022-09-01T17:49:33.203Z,100399.81
2022-09-01T17:52:52.919Z,100402.56
2022-09-01T17:55:57.779Z,100408.78
2022-09-01T17:59:23.951Z,100413.25
2022-09-01T18:03:00.904Z,100413.31
2022-09-01T18:06:07.239Z,100415.12
2022-09-01T18:09:10.122Z,100423.09
2022-09-01T18:12:17.349Z,100438.88
2022-09-01T18:15:22.712Z,100438.03
2022-09-01T18:18:35.476Z,100438.09
2022-09-01T18:21:46.308Z,100434.66
2022-09-01T18:25:06.531Z,100440.81
2022-09-01T18:28:09.852Z,100444.31
2022-09-01T18:31:23.832Z,100443.41
2022-09-01T18:35:22.440Z,100455.59
2022-09-01T18:38:51.580Z,100452.00
2022-09-01T18:41:55.751Z,100459.09
2022-09-01T18:45:21.987Z,100465.25
2022-09-01T18:48:38.411Z,100467.13
2022-09-01T18:51:47.592Z,100471.53
2022-09-01T18:55:43.245Z,100462.78
2022-09-01T18:58:53.359Z,100478.59
2022-09-01T19:02:34.125Z,100466.31
2022-09-01T19:05:46.376Z,100465.41
2022-09-01T19:09:08.378Z,100469.84
2022-09-01T19:12:15.475Z,100469.81
2022-09-01T19:15:26.692Z,100466.31
2022-09-01T19:18:40.378Z,100466.31
2022-09-01T19:21:44.834Z,100471.59
2022-09-01T19:25:28.437Z,100475.13
2022-09-01T19:28:33.161Z,100477.75
2022-09-01T19:31:40.404Z,100479.50
2022-09-01T19:35:05.576Z,100481.25
2022-09-01T19:38:09.417Z,100483.88
2022-09-01T19:41:46.858Z,100488.22
2022-09-01T19:44:53.683Z,100487.28
2022-09-01T19:48:15.192Z,100495.09
2022-09-01T19:51:28.070Z,100498.59
2022-09-01T19:54:49.298Z,100494.13
2022-09-01T19:58:07.437Z,100501.87
2022-09-01T20:01:14.491Z,100506.31
2022-09-01T20:04:32.124Z,100504.47
2022-09-01T20:07:44.627Z,100509.84
2022-09-01T20:11:05.431Z,100516.03
2022-09-01T20:14:25.908Z,100518.75
2022-09-01T20:17:37.110Z,100515.28
2022-09-01T20:20:45.173Z,100517.16
2022-09-01T20:23:46.919Z,100525.09
2022-09-01T20:27:01.031Z,100519.81
2022-09-01T20:30:09.316Z,100525.97
2022-09-01T20:33:19.344Z,100519.81
2022-09-01T20:36:29.374Z,100515.44
2022-09-01T20:39:59.831Z,100519.84
2022-09-01T20:43:25.275Z,100525.16
2022-09-01T20:46:27.180Z,100517.12
2022-09-01T20:49:29.209Z,100521.50
2022-09-01T20:52:47.698Z,100519.75
2022-09-01T20:55:58.234Z,100516.28
2022-09-01T20:59:11.532Z,100518.91
2022-09-01T21:02:38.743Z,100525.88
2022-09-01T21:06:04.334Z,100526.69
2022-09-01T21:09:15.369Z,100525.81
2022-09-01T21:12:30.767Z,100527.50
2022-09-01T21:15:47.683Z,100531.91
2022-09-01T21:19:18.730Z,100534.47
2022-09-01T21:22:22.367Z,100538.84
2022-09-01T21:25:24.804Z,100537.97
2022-09-01T21:28:27.977Z,100535.28
2022-09-01T21:31:31.089Z,100537.00
2022-09-01T21:34:33.031Z,100531.81
2022-09-01T21:37:35.172Z,100542.28
2022-09-01T21:40:37.048Z,100538.69
2022-09-01T21:43:43.930Z,100541.28
2022-09-01T21:46:45.810Z,100537.84
2022-09-01T21:49:47.681Z,100540.47
2022-09-01T21:52:49.760Z,100539.56
2022-09-01T21:55:51.666Z,100542.09
2022-09-01T21:58:55.407Z,100542.06
2022-09-01T22:01:57.344Z,100545.63
2022-09-01T22:04:59.446Z,100535.19
2022-09-01T22:08:01.606Z,100529.88
2022-09-01T22:11:09.783Z,100529.91
2022-09-01T22:14:11.804Z,100531.59
2022-09-01T22:17:13.626Z,100525.53
2022-09-01T22:20:18.574Z,100525.59
2022-09-01T22:23:20.615Z,100517.72
2022-09-01T22:26:28.779Z,100530.72
2022-09-01T22:29:30.399Z,100532.44
2022-09-01T22:32:36.199Z,100522.75
2022-09-01T22:35:47.621Z,100524.53
2022-09-01T22:38:50.299Z,100517.63
2022-09-01T22:41:52.078Z,100515.94
2022-09-01T22:44:54.076Z,100519.28
2022-09-01T22:47:55.980Z,100511.41
2022-09-01T22:50:57.802Z,100514.09
2022-09-01T22:53:59.835Z,100522.94
2022-09-01T22:57:02.667Z,100523.75
2022-09-01T23:00:08.737Z,100516.78
2022-09-01T23:03:10.911Z,100516.84
2022-09-01T23:06:21.827Z,100510.59
2022-09-01T23:09:29.761Z,100519.28
2022-09-01T23:12:31.357Z,100516.66
2022-09-01T23:15:34.012Z,100512.22
2022-09-01T23:18:38.082Z,100521.09
2022-09-01T23:21:39.909Z,100515.78
2022-09-01T23:24:41.765Z,100510.53
2022-09-01T23:27:43.769Z,100510.47
2022-09-01T23:30:49.847Z,100504.47
2022-09-01T23:33:51.997Z,100503.59
2022-09-01T23:36:53.857Z,100498.28
2022-09-01T23:39:55.913Z,100494.81
2022-09-01T23:42:57.785Z,100494.66
2022-09-01T23:45:59.803Z,100494.81
2022-09-01T23:49:02.527Z,100497.44
2022-09-01T23:52:04.505Z,100497.41
2022-09-01T23:55:07.927Z,100498.34
2022-09-01T23:58:10.261Z,100492.25
